createdAt,value
2023-05-17T00:00:31.270Z,4.43
2023-05-17T00:03:01.479Z,4.30
2023-05-17T00:05:31.344Z,4.10
2023-05-17T00:08:01.474Z,4.35
2023-05-17T00:10:31.376Z,4.13
2023-05-17T00:13:01.527Z,4.62
2023-05-17T00:15:31.664Z,4.70
2023-05-17T00:18:01.373Z,4.10
2023-05-17T00:20:31.399Z,4.23
2023-05-17T00:23:01.545Z,4.80
2023-05-17T00:25:31.666Z,4.13
2023-05-17T00:28:01.843Z,5.30
2023-05-17T00:30:31.745Z,5.00
2023-05-17T00:33:02.034Z,4.42
2023-05-17T00:35:32.109Z,5.37
2023-05-17T00:38:02.237Z,5.62
2023-05-17T00:40:33.222Z,4.90
2023-05-17T00:43:03.640Z,5.17
2023-05-17T00:45:33.549Z,5.40
2023-05-17T00:48:05.383Z,4.45
2023-05-17T00:50:36.054Z,5.35
2023-05-17T00:53:06.171Z,6.03
2023-05-17T00:55:36.583Z,5.87
2023-05-17T00:58:06.748Z,5.65
2023-05-17T01:00:36.598Z,5.40
2023-05-17T01:03:08.143Z,6.25
2023-05-17T01:05:37.821Z,6.20
2023-05-17T01:08:07.946Z,5.15
2023-05-17T01:10:55.531Z,5.80
2023-05-17T01:13:45.429Z,5.35
2023-05-17T01:16:21.343Z,5.95
2023-05-17T01:19:03.994Z,6.62
2023-05-17T01:21:48.872Z,6.50
2023-05-17T01:24:27.868Z,6.07
2023-05-17T01:27:00.180Z,6.20
2023-05-17T01:29:30.854Z,5.78
2023-05-17T01:32:02.777Z,6.50
2023-05-17T01:34:32.898Z,8.65
2023-05-17T01:37:03.024Z,6.58
2023-05-17T01:39:32.989Z,6.47
2023-05-17T01:42:14.486Z,6.50
2023-05-17T01:44:53.320Z,7.08
2023-05-17T01:47:42.595Z,7.03
2023-05-17T01:50:15.284Z,6.65
2023-05-17T01:52:57.078Z,6.90
2023-05-17T01:55:42.302Z,6.37
2023-05-17T01:58:14.019Z,6.47
2023-05-17T02:00:47.403Z,6.40
2023-05-17T02:03:21.443Z,6.90
2023-05-17T02:05:53.026Z,5.65
2023-05-17T02:08:23.356Z,6.90
2023-05-17T02:10:53.575Z,6.07
2023-05-17T02:13:23.754Z,5.75
2023-05-17T02:15:53.586Z,6.67
2023-05-17T02:18:23.603Z,6.97
2023-05-17T02:20:53.889Z,7.00
2023-05-17T02:23:25.008Z,7.08
2023-05-17T02:25:55.122Z,6.87
2023-05-17T02:28:25.275Z,6.78
2023-05-17T02:30:56.386Z,6.60
2023-05-17T02:33:26.378Z,6.57
2023-05-17T02:35:56.612Z,6.50
2023-05-17T02:38:26.440Z,6.97
2023-05-17T02:40:56.580Z,7.15
2023-05-17T02:43:26.978Z,6.97
2023-05-17T02:45:56.845Z,6.40
2023-05-17T02:48:26.970Z,7.53
2023-05-17T02:50:57.186Z,6.78
2023-05-17T02:53:27.031Z,6.97
2023-05-17T02:55:59.889Z,6.65
2023-05-17T02:58:29.478Z,6.40
2023-05-17T03:00:59.466Z,6.57
2023-05-17T03:03:29.656Z,7.13
2023-05-17T03:06:05.018Z,6.40
2023-05-17T03:08:35.299Z,6.67
2023-05-17T03:11:05.881Z,6.23
2023-05-17T03:13:35.708Z,7.00
2023-05-17T03:16:06.266Z,7.75
2023-05-17T03:18:36.758Z,6.50
2023-05-17T03:21:06.799Z,6.00
2023-05-17T03:23:36.792Z,6.93
2023-05-17T03:26:06.884Z,6.07
2023-05-17T03:28:38.430Z,6.10
2023-05-17T03:31:09.245Z,6.10
2023-05-17T03:33:42.569Z,6.60
2023-05-17T03:36:14.993Z,6.72
2023-05-17T03:38:45.276Z,6.60
2023-05-17T03:41:16.011Z,7.40
2023-05-17T03:43:46.067Z,7.33
2023-05-17T03:46:18.028Z,7.24
2023-05-17T03:48:49.438Z,6.50
2023-05-17T03:51:19.974Z,7.07
2023-05-17T03:53:51.664Z,6.85
2023-05-17T03:56:21.655Z,7.17
2023-05-17T03:58:51.758Z,6.37
2023-05-17T04:01:21.974Z,6.70
2023-05-17T04:03:51.802Z,7.33
2023-05-17T04:06:22.027Z,7.23
2023-05-17T04:08:53.602Z,7.87
2023-05-17T04:11:25.179Z,6.27
2023-05-17T04:13:56.770Z,8.03
2023-05-17T04:16:26.388Z,7.00
2023-05-17T04:18:58.056Z,7.53
2023-05-17T04:21:29.735Z,7.30
2023-05-17T04:24:00.096Z,6.97
2023-05-17T04:26:30.651Z,7.25
2023-05-17T04:29:00.561Z,7.57
2023-05-17T04:31:32.154Z,7.30
2023-05-17T04:34:02.823Z,7.13
2023-05-17T04:36:32.866Z,7.43
2023-05-17T04:39:03.567Z,7.50
2023-05-17T04:41:33.601Z,6.93
2023-05-17T04:44:04.467Z,7.90
2023-05-17T04:46:36.378Z,6.63
2023-05-17T04:49:07.369Z,6.40
2023-05-17T04:51:37.421Z,7.17
2023-05-17T04:54:08.699Z,7.50
2023-05-17T04:56:38.726Z,7.23
2023-05-17T04:59:11.751Z,7.30
2023-05-17T05:01:41.846Z,7.20
2023-05-17T05:04:13.206Z,7.05
2023-05-17T05:06:44.437Z,7.60
2023-05-17T05:09:14.717Z,7.60
2023-05-17T05:11:44.566Z,7.43
2023-05-17T05:14:14.968Z,7.12
2023-05-17T05:16:45.102Z,6.30
2023-05-17T05:19:15.476Z,7.40
2023-05-17T05:21:48.426Z,8.30
2023-05-17T05:24:18.800Z,8.00
2023-05-17T05:26:49.669Z,8.20
2023-05-17T05:29:20.835Z,7.62
2023-05-17T05:31:50.763Z,7.27
2023-05-17T05:34:21.082Z,7.75
2023-05-17T05:36:51.753Z,7.22
2023-05-17T05:39:21.920Z,7.78
2023-05-17T05:41:52.405Z,7.03
2023-05-17T05:44:23.959Z,7.40
2023-05-17T05:46:54.898Z,6.80
2023-05-17T05:49:25.314Z,6.70
2023-05-17T05:51:55.900Z,5.72
2023-05-17T05:54:27.293Z,7.50
2023-05-17T05:56:57.215Z,6.10
2023-05-17T05:59:27.720Z,6.62
2023-05-17T06:01:59.319Z,6.37
2023-05-17T06:04:43.928Z,6.33
2023-05-17T06:07:01.779Z,6.00
2023-05-17T06:09:32.188Z,6.92
2023-05-17T06:12:02.091Z,4.87
2023-05-17T06:14:32.259Z,4.95
2023-05-17T06:17:02.183Z,4.13
2023-05-17T06:19:32.614Z,4.85
2023-05-17T06:22:02.691Z,5.33
2023-05-17T06:24:33.237Z,4.83
2023-05-17T06:27:03.573Z,4.15
2023-05-17T06:29:33.838Z,3.52
2023-05-17T06:32:03.662Z,4.33
2023-05-17T06:34:33.516Z,3.10
2023-05-17T06:37:03.532Z,3.50
2023-05-17T06:39:33.722Z,3.17
2023-05-17T06:42:03.540Z,3.07
2023-05-17T06:44:35.913Z,3.25
2023-05-17T06:47:05.804Z,2.60
2023-05-17T06:49:36.246Z,2.98
2023-05-17T06:52:06.318Z,3.40
2023-05-17T06:54:36.486Z,2.98
2023-05-17T06:57:06.586Z,4.00
2023-05-17T06:59:38.286Z,4.00
2023-05-17T07:02:08.213Z,3.40
2023-05-17T07:04:38.444Z,4.10
2023-05-17T07:07:08.302Z,3.17
2023-05-17T07:09:38.752Z,3.12
2023-05-17T07:12:08.767Z,2.73
2023-05-17T07:14:38.912Z,2.90
2023-05-17T07:17:09.060Z,2.65
2023-05-17T07:19:39.299Z,2.33
2023-05-17T07:22:09.897Z,2.77
2023-05-17T07:24:40.037Z,2.30
2023-05-17T07:27:09.902Z,2.87
2023-05-17T07:29:42.061Z,2.60
2023-05-17T07:32:11.908Z,2.87
2023-05-17T07:34:41.856Z,3.43
2023-05-17T07:37:11.703Z,2.07
2023-05-17T07:39:41.619Z,2.03
2023-05-17T07:42:11.788Z,2.10
2023-05-17T07:44:41.942Z,1.60
2023-05-17T07:47:11.896Z,2.13
2023-05-17T07:49:41.866Z,2.10
2023-05-17T07:52:12.206Z,2.07
2023-05-17T07:54:42.032Z,1.93
2023-05-17T07:57:11.904Z,2.10
2023-05-17T07:59:41.746Z,1.97
2023-05-17T08:02:11.586Z,2.40
2023-05-17T08:04:42.120Z,2.47
2023-05-17T08:07:11.932Z,1.87
2023-05-17T08:09:43.430Z,1.70
2023-05-17T08:12:14.324Z,1.93
2023-05-17T08:14:44.172Z,1.83
2023-05-17T08:17:14.114Z,1.97
2023-05-17T08:19:44.963Z,2.23
2023-05-17T08:22:17.747Z,2.15
2023-05-17T08:24:48.430Z,2.10
2023-05-17T08:27:18.444Z,2.07
2023-05-17T08:29:48.306Z,1.77
2023-05-17T08:32:21.185Z,2.00
2023-05-17T08:34:51.173Z,1.50
2023-05-17T08:37:20.811Z,2.80
2023-05-17T08:39:51.519Z,2.23
2023-05-17T08:42:25.697Z,1.42
2023-05-17T08:44:56.444Z,1.83
2023-05-17T08:47:32.159Z,1.67
2023-05-17T08:50:03.443Z,1.90
2023-05-17T08:52:33.888Z,1.22
2023-05-17T08:55:05.477Z,2.53
2023-05-17T08:57:37.636Z,1.65
2023-05-17T09:00:15.379Z,1.60
2023-05-17T09:02:45.336Z,1.90
2023-05-17T09:05:16.362Z,1.47
2023-05-17T09:07:48.257Z,2.02
2023-05-17T09:10:20.473Z,1.88
2023-05-17T09:12:50.697Z,1.50
2023-05-17T09:15:24.119Z,1.60
2023-05-17T09:17:55.619Z,1.73
2023-05-17T09:20:28.830Z,2.00
2023-05-17T09:22:59.068Z,1.90
2023-05-17T09:25:30.228Z,1.50
2023-05-17T09:28:05.288Z,2.10
2023-05-17T09:30:38.191Z,1.55
2023-05-17T09:33:09.287Z,1.50
2023-05-17T09:35:39.964Z,1.43
2023-05-17T09:38:12.520Z,1.60
2023-05-17T09:40:44.618Z,1.80
2023-05-17T09:43:15.408Z,1.97
2023-05-17T09:45:45.705Z,1.30
2023-05-17T09:48:18.565Z,1.46
2023-05-17T09:50:51.054Z,1.50
2023-05-17T09:53:31.017Z,2.27
2023-05-17T09:56:05.661Z,2.45
2023-05-17T09:58:39.610Z,2.77
2023-05-17T10:01:11.219Z,2.37
2023-05-17T10:03:41.269Z,2.43
2023-05-17T10:06:23.792Z,2.92
2023-05-17T10:08:49.383Z,1.90
2023-05-17T10:11:21.517Z,2.00
2023-05-17T10:14:12.161Z,1.97
2023-05-17T10:16:43.109Z,2.10
2023-05-17T10:19:13.353Z,1.90
2023-05-17T10:21:44.103Z,1.87
2023-05-17T10:24:14.083Z,1.40
2023-05-17T10:26:44.466Z,1.72
2023-05-17T10:29:16.206Z,1.87
2023-05-17T10:31:47.821Z,1.40
2023-05-17T10:34:19.251Z,1.57
2023-05-17T10:36:50.905Z,1.43
2023-05-17T10:39:22.588Z,1.20
2023-05-17T10:42:06.797Z,1.17
2023-05-17T10:44:27.028Z,1.57
2023-05-17T10:46:58.014Z,1.90
2023-05-17T10:49:33.627Z,1.60
2023-05-17T10:52:17.434Z,1.93
2023-05-17T10:54:50.978Z,1.60
2023-05-17T10:57:50.773Z,1.80
2023-05-17T11:00:12.318Z,1.52
2023-05-17T11:02:43.557Z,1.40
2023-05-17T11:05:27.417Z,2.17
2023-05-17T11:08:19.255Z,2.60
2023-05-17T11:11:12.394Z,2.27
2023-05-17T11:13:59.055Z,1.83
2023-05-17T11:16:38.894Z,1.22
2023-05-17T11:19:12.780Z,1.40
2023-05-17T11:21:50.027Z,1.23
2023-05-17T11:24:22.610Z,1.20
2023-05-17T11:26:52.907Z,1.13
2023-05-17T11:29:24.256Z,1.30
2023-05-17T11:31:54.107Z,1.53
2023-05-17T11:34:25.591Z,1.83
2023-05-17T11:36:56.891Z,1.33
2023-05-17T11:39:27.112Z,1.13
2023-05-17T11:41:58.656Z,1.20
2023-05-17T11:44:33.420Z,1.60
2023-05-17T11:47:04.277Z,1.00
2023-05-17T11:49:37.457Z,1.00
2023-05-17T11:52:08.079Z,1.27
2023-05-17T11:54:39.476Z,0.90
2023-05-17T11:57:10.268Z,1.20
2023-05-17T11:59:40.855Z,1.35
2023-05-17T12:02:10.660Z,1.47
2023-05-17T12:04:40.793Z,1.20
2023-05-17T12:07:13.363Z,1.17
2023-05-17T12:09:45.389Z,1.97
2023-05-17T12:12:15.177Z,1.87
2023-05-17T12:14:45.939Z,1.60
2023-05-17T12:17:18.843Z,1.60
2023-05-17T12:19:48.865Z,1.53
2023-05-17T12:22:18.792Z,1.42
2023-05-17T12:24:48.698Z,1.90
2023-05-17T12:27:27.061Z,1.70
2023-05-17T12:29:56.886Z,1.80
2023-05-17T12:32:26.888Z,1.80
2023-05-17T12:34:56.869Z,1.40
2023-05-17T12:37:26.986Z,1.50
2023-05-17T12:39:58.727Z,1.50
2023-05-17T12:42:28.415Z,2.08
2023-05-17T12:44:59.753Z,1.93
2023-05-17T12:47:32.907Z,1.23
2023-05-17T12:50:03.504Z,1.23
2023-05-17T12:52:36.724Z,1.50
2023-05-17T12:55:09.680Z,1.80
2023-05-17T12:57:39.518Z,1.50
2023-05-17T13:00:10.612Z,1.67
2023-05-17T13:02:44.595Z,1.67
2023-05-17T13:05:24.561Z,1.60
2023-05-17T13:07:54.971Z,1.73
2023-05-17T13:10:29.057Z,2.42
2023-05-17T13:13:00.491Z,2.03
2023-05-17T13:15:34.265Z,1.73
2023-05-17T13:18:09.792Z,1.68
2023-05-17T13:20:39.715Z,1.87
2023-05-17T13:23:10.641Z,1.67
2023-05-17T13:25:40.222Z,2.00
2023-05-17T13:28:11.620Z,1.50
2023-05-17T13:30:41.460Z,2.10
2023-05-17T13:33:11.384Z,2.17
2023-05-17T13:35:41.324Z,1.70
2023-05-17T13:38:10.863Z,1.90
2023-05-17T13:40:40.959Z,1.70
2023-05-17T13:43:11.075Z,2.27
2023-05-17T13:45:40.905Z,2.13
2023-05-17T13:48:11.939Z,1.68
2023-05-17T13:50:42.143Z,1.90
2023-05-17T13:53:12.123Z,2.00
2023-05-17T13:55:41.959Z,1.80
2023-05-17T13:58:11.752Z,2.27
2023-05-17T14:00:44.224Z,1.98
2023-05-17T14:03:14.716Z,2.67
2023-05-17T14:05:46.173Z,2.10
2023-05-17T14:08:15.744Z,2.22
2023-05-17T14:10:45.670Z,2.53
2023-05-17T14:13:15.540Z,1.80
2023-05-17T14:15:45.188Z,2.10
2023-05-17T14:18:14.872Z,2.00
2023-05-17T14:20:44.786Z,2.03
2023-05-17T14:23:14.856Z,1.50
2023-05-17T14:25:44.717Z,2.03
2023-05-17T14:28:14.991Z,1.90
2023-05-17T14:30:46.659Z,2.20
2023-05-17T14:33:16.347Z,1.80
2023-05-17T14:35:46.384Z,1.57
2023-05-17T14:38:15.931Z,1.80
2023-05-17T14:40:45.795Z,1.87
2023-05-17T14:43:16.314Z,2.10
2023-05-17T14:45:46.222Z,1.67
2023-05-17T14:48:16.284Z,2.30
2023-05-17T14:50:46.414Z,2.20
2023-05-17T14:53:16.491Z,1.97
2023-05-17T14:55:46.331Z,1.80
2023-05-17T14:58:16.622Z,2.67
2023-05-17T15:00:48.480Z,2.33
2023-05-17T15:03:21.968Z,1.40
2023-05-17T15:05:59.809Z,1.67
2023-05-17T15:08:29.771Z,2.10
2023-05-17T15:11:00.849Z,2.03
2023-05-17T15:13:30.831Z,1.87
2023-05-17T15:16:01.008Z,1.97
2023-05-17T15:18:31.242Z,2.33
2023-05-17T15:21:02.760Z,1.90
2023-05-17T15:23:32.577Z,1.90
2023-05-17T15:26:02.471Z,2.23
2023-05-17T15:28:32.617Z,1.55
2023-05-17T15:31:05.598Z,2.40
2023-05-17T15:33:36.327Z,2.20
2023-05-17T15:36:08.330Z,2.33
2023-05-17T15:38:38.547Z,2.23
2023-05-17T15:41:10.295Z,2.20
2023-05-17T15:43:40.139Z,2.27
2023-05-17T15:46:10.125Z,2.13
2023-05-17T15:48:40.063Z,1.93
2023-05-17T15:51:10.058Z,2.20
2023-05-17T15:53:40.133Z,2.73
2023-05-17T15:56:10.288Z,1.90
2023-05-17T15:58:40.110Z,2.10
2023-05-17T16:01:09.937Z,2.27
2023-05-17T16:03:39.851Z,2.40
2023-05-17T16:06:10.247Z,2.00
2023-05-17T16:08:40.134Z,2.10
2023-05-17T16:11:10.176Z,2.20
2023-05-17T16:13:40.073Z,2.27
2023-05-17T16:16:10.761Z,2.43
2023-05-17T16:18:40.726Z,2.00
2023-05-17T16:21:10.319Z,2.05
2023-05-17T16:23:40.155Z,2.30
2023-05-17T16:26:10.017Z,2.23
2023-05-17T16:28:39.862Z,2.23
2023-05-17T16:31:09.506Z,2.15
2023-05-17T16:33:41.279Z,1.70
2023-05-17T16:36:12.309Z,2.30
2023-05-17T16:38:42.213Z,2.40
2023-05-17T16:41:12.429Z,1.77
2023-05-17T16:43:42.286Z,1.67
2023-05-17T16:46:11.893Z,1.57
2023-05-17T16:48:41.735Z,1.70
2023-05-17T16:51:11.577Z,2.00
2023-05-17T16:53:42.104Z,1.95
2023-05-17T16:56:13.564Z,1.90
2023-05-17T16:58:43.477Z,2.10
2023-05-17T17:01:13.647Z,2.17
2023-05-17T17:03:43.971Z,2.05
2023-05-17T17:06:13.562Z,1.67
2023-05-17T17:08:43.157Z,2.20
2023-05-17T17:11:12.996Z,2.03
2023-05-17T17:13:42.820Z,1.67
2023-05-17T17:16:12.710Z,1.82
2023-05-17T17:18:42.623Z,2.10
2023-05-17T17:21:12.482Z,2.30
2023-05-17T17:23:44.266Z,1.87
2023-05-17T17:26:13.820Z,2.27
2023-05-17T17:28:43.744Z,2.30
2023-05-17T17:31:13.581Z,2.87
2023-05-17T17:33:43.820Z,2.00
2023-05-17T17:36:13.429Z,2.00
2023-05-17T17:38:43.335Z,1.70
2023-05-17T17:41:13.186Z,2.30
2023-05-17T17:43:43.224Z,1.53
2023-05-17T17:46:12.998Z,1.67
2023-05-17T17:48:42.842Z,2.13
2023-05-17T17:51:13.003Z,1.87
2023-05-17T17:53:42.818Z,2.73
2023-05-17T17:56:12.716Z,2.27
2023-05-17T17:58:43.442Z,1.67
2023-05-17T18:01:13.450Z,2.30
2023-05-17T18:03:43.248Z,2.20
2023-05-17T18:06:14.160Z,2.27
2023-05-17T18:08:44.058Z,1.80
2023-05-17T18:11:14.078Z,1.73
2023-05-17T18:13:44.042Z,2.50
2023-05-17T18:16:13.684Z,2.77
2023-05-17T18:18:44.118Z,2.73
2023-05-17T18:21:14.605Z,2.37
2023-05-17T18:23:44.211Z,3.15
2023-05-17T18:26:14.134Z,2.25
2023-05-17T18:28:43.969Z,1.77
2023-05-17T18:31:14.920Z,2.98
2023-05-17T18:33:45.354Z,3.37
2023-05-17T18:36:15.248Z,2.47
2023-05-17T18:38:45.624Z,2.57
2023-05-17T18:41:15.540Z,2.30
2023-05-17T18:43:45.693Z,2.90
2023-05-17T18:46:15.536Z,1.75
2023-05-17T18:48:45.693Z,1.75
2023-05-17T18:51:15.907Z,2.10
2023-05-17T18:53:45.826Z,2.30
2023-05-17T18:56:16.993Z,2.80
2023-05-17T18:58:46.848Z,2.23
2023-05-17T19:01:16.484Z,2.12
2023-05-17T19:03:47.345Z,2.00
2023-05-17T19:06:17.976Z,2.70
2023-05-17T19:08:49.686Z,2.17
2023-05-17T19:11:19.769Z,2.50
2023-05-17T19:13:49.648Z,2.33
2023-05-17T19:16:19.317Z,1.93
2023-05-17T19:18:49.917Z,2.53
2023-05-17T19:21:19.530Z,2.20
2023-05-17T19:23:49.768Z,2.77
2023-05-17T19:26:19.496Z,3.02
2023-05-17T19:28:49.413Z,2.80
2023-05-17T19:31:19.426Z,2.43
2023-05-17T19:33:49.291Z,2.73
2023-05-17T19:36:19.150Z,2.67
2023-05-17T19:38:51.738Z,3.20
2023-05-17T19:41:21.865Z,2.90
2023-05-17T19:43:51.672Z,2.63
2023-05-17T19:46:21.288Z,3.30
2023-05-17T19:48:51.342Z,2.97
2023-05-17T19:51:21.188Z,3.17
2023-05-17T19:53:54.001Z,2.50
2023-05-17T19:56:24.450Z,3.05
2023-05-17T19:58:54.289Z,2.50
2023-05-17T20:01:24.178Z,2.60
2023-05-17T20:03:54.197Z,2.77
2023-05-17T20:06:24.140Z,2.90
2023-05-17T20:08:53.981Z,2.37
2023-05-17T20:11:24.142Z,2.60
2023-05-17T20:13:54.000Z,2.33
2023-05-17T20:16:25.269Z,2.63
2023-05-17T20:18:56.910Z,2.40
2023-05-17T20:21:26.805Z,3.13
2023-05-17T20:24:04.031Z,2.40
2023-05-17T20:26:35.844Z,2.33
2023-05-17T20:29:07.260Z,2.03
2023-05-17T20:31:37.645Z,1.97
2023-05-17T20:34:10.739Z,2.30
2023-05-17T20:36:42.083Z,2.17
2023-05-17T20:39:11.912Z,2.07
2023-05-17T20:41:43.267Z,2.70
2023-05-17T20:44:14.742Z,2.70
2023-05-17T20:46:44.874Z,2.70
2023-05-17T20:49:14.762Z,3.40
2023-05-17T20:51:44.674Z,2.67
2023-05-17T20:54:14.352Z,2.70
2023-05-17T20:56:44.196Z,2.53
2023-05-17T20:59:14.057Z,3.50
2023-05-17T21:01:43.915Z,2.07
2023-05-17T21:04:14.266Z,2.10
2023-05-17T21:06:44.399Z,1.80
2023-05-17T21:09:14.306Z,1.80
2023-05-17T21:11:44.228Z,2.80
2023-05-17T21:14:14.108Z,2.05
2023-05-17T21:16:44.060Z,1.80
2023-05-17T21:19:14.425Z,1.77
2023-05-17T21:21:44.278Z,1.93
2023-05-17T21:24:14.112Z,2.60
2023-05-17T21:26:43.956Z,2.00
2023-05-17T21:29:13.810Z,1.70
2023-05-17T21:31:43.675Z,2.20
2023-05-17T21:34:13.325Z,1.50
2023-05-17T21:36:43.228Z,1.70
2023-05-17T21:39:12.884Z,1.60
2023-05-17T21:41:42.816Z,2.30
2023-05-17T21:44:12.345Z,1.70
2023-05-17T21:46:42.223Z,2.13
2023-05-17T21:49:12.130Z,2.07
2023-05-17T21:51:43.712Z,1.75
2023-05-17T21:54:13.523Z,2.00
2023-05-17T21:56:43.042Z,2.00
2023-05-17T21:59:12.893Z,2.10
2023-05-17T22:01:42.852Z,1.53
2023-05-17T22:04:12.436Z,1.90
2023-05-17T22:06:42.848Z,2.20
2023-05-17T22:09:13.050Z,1.65
2023-05-17T22:11:43.039Z,2.43
2023-05-17T22:14:13.422Z,2.17
2023-05-17T22:16:44.403Z,1.42
2023-05-17T22:19:14.336Z,2.00
2023-05-17T22:21:44.169Z,1.63
2023-05-17T22:24:13.998Z,1.80
2023-05-17T22:26:43.941Z,1.80
2023-05-17T22:29:13.795Z,2.03
2023-05-17T22:31:43.675Z,1.70
2023-05-17T22:34:13.590Z,1.92
2023-05-17T22:36:43.733Z,1.95
2023-05-17T22:39:14.147Z,1.97
2023-05-17T22:41:44.269Z,2.23
2023-05-17T22:44:14.179Z,3.05
2023-05-17T22:46:45.743Z,2.47
2023-05-17T22:49:16.869Z,2.20
2023-05-17T22:51:47.033Z,2.00
2023-05-17T22:54:17.012Z,2.37
2023-05-17T22:56:46.927Z,1.87
2023-05-17T22:59:16.786Z,2.20
2023-05-17T23:01:46.807Z,2.17
2023-05-17T23:04:16.678Z,1.70
2023-05-17T23:06:47.230Z,1.90
2023-05-17T23:09:17.421Z,1.90
2023-05-17T23:11:47.252Z,1.50
2023-05-17T23:14:18.144Z,1.80
2023-05-17T23:16:48.390Z,2.13
2023-05-17T23:19:18.400Z,3.03
2023-05-17T23:21:48.967Z,3.40
2023-05-17T23:24:18.842Z,2.22
2023-05-17T23:26:48.754Z,2.00
2023-05-17T23:29:18.863Z,2.10
2023-05-17T23:31:50.528Z,1.50
2023-05-17T23:34:20.246Z,1.77
2023-05-17T23:36:50.070Z,2.10
2023-05-17T23:39:19.909Z,2.17
2023-05-17T23:41:51.627Z,1.97
2023-05-17T23:44:21.189Z,2.00
2023-05-17T23:46:52.836Z,2.03
2023-05-17T23:49:25.993Z,2.02
2023-05-17T23:51:56.328Z,2.10
2023-05-17T23:54:26.641Z,2.22
2023-05-17T23:56:56.892Z,2.15
2023-05-17T23:59:26.725Z,2.23
